Time;durP1;ratioP1;P1;durP2;ratioP2;P2;SDS_P1;SDS_P2;PMS_P1;PMS_P2;Temp;Humidity;BMP_temperature;BMP_pressure;BME280_temperature;BME280_humidity;BME280_pressure;Samples;Min_cycle;Max_cycle;Signal;HPM_P1;HPM_P2
2022/03/26 00:06:46;;;;;;;24.48;10.32;;;9.20;80.40;;;;;;6745477;88;20189;-76
2022/03/26 00:16:46;;;;;;;25.45;11.15;;;9.10;81.00;;;;;;6747563;88;20200;-76
2022/03/26 00:26:48;;;;;;;20.62;9.77;;;8.90;81.50;;;;;;6744846;88;20543;-76
2022/03/26 00:36:48;;;;;;;21.58;10.88;;;8.90;82.20;;;;;;6743550;88;20694;-76
2022/03/26 00:46:49;;;;;;;21.02;9.95;;;9.00;82.70;;;;;;6751451;87;20197;-76
2022/03/26 00:56:50;;;;;;;26.93;10.93;;;9.00;83.60;;;;;;6746834;88;20267;-76
2022/03/26 01:06:50;;;;;;;26.40;10.90;;;8.80;84.00;;;;;;6746915;88;20510;-76
2022/03/26 01:16:51;;;;;;;27.83;10.55;;;8.70;85.60;;;;;;6746299;88;20188;-76
2022/03/26 01:26:51;;;;;;;21.55;9.73;;;8.60;87.60;;;;;;6751097;88;20568;-76
2022/03/26 01:36:52;;;;;;;23.27;10.07;;;8.40;89.20;;;;;;6745220;88;20189;-76
2022/03/26 01:46:54;;;;;;;20.93;10.20;;;8.30;90.50;;;;;;6743241;88;20711;-76
2022/03/26 01:56:55;;;;;;;23.17;10.50;;;8.10;91.50;;;;;;6744865;88;20518;-76
2022/03/26 02:06:56;;;;;;;24.02;10.45;;;8.00;93.20;;;;;;6746363;88;20193;-76
2022/03/26 02:16:56;;;;;;;29.90;12.32;;;8.00;94.10;;;;;;6733416;88;20230;-76
2022/03/26 02:26:57;;;;;;;21.70;10.10;;;7.70;95.30;;;;;;6732809;88;20219;-76
2022/03/26 02:36:58;;;;;;;24.67;10.50;;;7.40;94.60;;;;;;6744613;88;20275;-76
2022/03/26 02:46:59;;;;;;;23.10;10.70;;;7.20;96.20;;;;;;6742576;88;20238;-76
2022/03/26 02:57:00;;;;;;;25.67;10.63;;;7.00;98.80;;;;;;6747487;88;20218;-76
2022/03/26 03:07:00;;;;;;;22.08;9.80;;;7.10;97.50;;;;;;6748930;88;20328;-77
2022/03/26 03:17:01;;;;;;;22.20;10.25;;;6.70;98.70;;;;;;6746753;88;20190;-76
2022/03/26 03:27:01;;;;;;;21.42;9.70;;;6.50;99.60;;;;;;6751016;88;20295;-76
2022/03/26 03:37:02;;;;;;;24.30;10.50;;;6.50;99.90;;;;;;6744442;88;20206;-76
2022/03/26 03:47:03;;;;;;;19.80;9.53;;;6.60;99.90;;;;;;6721498;77;20582;-79
2022/03/26 03:57:04;;;;;;;21.85;9.95;;;6.40;99.90;;;;;;6704264;88;20550;-77
2022/03/26 04:07:05;;;;;;;21.55;10.27;;;6.30;99.90;;;;;;6753222;88;20596;-77
2022/03/26 04:17:05;;;;;;;26.33;10.70;;;6.10;99.90;;;;;;6749745;88;20210;-78
2022/03/26 04:27:06;;;;;;;23.20;9.85;;;5.90;99.90;;;;;;6753286;88;20647;-78
2022/03/26 04:37:07;;;;;;;21.85;9.98;;;5.70;99.90;;;;;;6753237;88;20196;-77
2022/03/26 04:47:07;;;;;;;26.90;10.13;;;5.70;99.90;;;;;;6688731;88;20207;-78
2022/03/26 04:57:09;;;;;;;22.13;10.25;;;5.30;99.90;;;;;;6742433;88;20679;-78
2022/03/26 05:17:29;;;;;;;22.85;10.15;;;5.30;99.90;;;;;;6754109;88;20176;-78
2022/03/26 05:27:30;;;;;;;22.63;10.33;;;5.20;99.90;;;;;;6753049;88;20227;-78
2022/03/26 05:37:30;;;;;;;25.40;10.95;;;5.20;99.90;;;;;;6752693;87;20629;-78
2022/03/26 05:47:31;;;;;;;23.08;10.02;;;4.80;99.90;;;;;;6767081;87;20234;-79
2022/03/26 05:57:33;;;;;;;24.02;9.68;;;4.90;99.90;;;;;;6742535;88;20189;-78
2022/03/26 06:07:33;;;;;;;21.83;10.40;;;5.00;99.90;;;;;;6742055;88;20403;-80
2022/03/26 06:17:35;;;;;;;24.58;10.40;;;5.30;99.90;;;;;;6747582;88;20189;-79
2022/03/26 06:27:35;;;;;;;26.83;10.93;;;5.30;99.90;;;;;;6741391;88;20285;-79
2022/03/26 06:37:36;;;;;;;22.77;10.82;;;5.40;99.90;;;;;;6738963;88;20189;-79
2022/03/26 06:47:36;;;;;;;21.17;9.63;;;5.60;99.90;;;;;;6743443;88;20334;-78
2022/03/26 06:57:37;;;;;;;29.65;10.65;;;6.20;99.90;;;;;;6756243;88;20243;-79
2022/03/26 07:07:38;;;;;;;25.48;10.98;;;6.30;99.90;;;;;;6755985;88;20273;-79
2022/03/26 07:17:41;;;;;;;24.90;10.75;;;6.70;99.90;;;;;;6755486;88;20200;-79
2022/03/26 07:27:41;;;;;;;25.73;11.57;;;7.40;99.90;;;;;;6756987;88;20185;-79
2022/03/26 07:37:43;;;;;;;26.83;11.73;;;7.80;99.90;;;;;;6757131;88;20195;-79
2022/03/26 07:47:44;;;;;;;29.73;12.48;;;8.40;99.90;;;;;;6755372;88;20237;-78
2022/03/26 07:57:44;;;;;;;25.48;11.70;;;9.10;99.90;;;;;;6758991;88;20211;-78
2022/03/26 08:07:45;;;;;;;24.98;12.43;;;9.40;99.90;;;;;;6758974;88;20885;-78
2022/03/26 08:17:45;;;;;;;28.92;12.68;;;10.10;98.90;;;;;;6669416;88;20198;-79
2022/03/26 08:27:46;;;;;;;28.35;12.90;;;11.00;97.00;;;;;;6741062;88;20185;-79
2022/03/26 08:37:47;;;;;;;27.77;12.55;;;12.00;96.30;;;;;;6739700;88;20190;-80
2022/03/26 08:47:48;;;;;;;32.65;14.13;;;12.80;94.70;;;;;;6734290;87;20231;-80
2022/03/26 08:57:48;;;;;;;27.95;14.40;;;13.80;92.40;;;;;;6741588;88;20186;-81
2022/03/26 09:07:50;;;;;;;30.65;14.15;;;14.50;90.80;;;;;;6743840;88;20636;-80
2022/03/26 09:17:51;;;;;;;28.35;14.68;;;15.20;89.80;;;;;;6745386;88;20213;-81
2022/03/26 09:27:51;;;;;;;29.80;15.30;;;16.40;86.80;;;;;;6746221;88;20197;-80
2022/03/26 09:37:52;;;;;;;29.45;15.52;;;17.10;84.40;;;;;;6744303;88;20634;-78
2022/03/26 09:57:57;;;;;;;33.80;16.62;;;18.30;78.30;;;;;;6676663;88;20215;-78
2022/03/26 10:08:06;;;;;;;29.80;15.88;;;19.30;77.20;;;;;;6676987;89;20241;-80
2022/03/26 10:18:11;;;;;;;34.03;17.35;;;20.10;75.80;;;;;;6659895;89;20686;-79
2022/03/26 10:28:20;;;;;;;;;;;20.30;74.40;;;;;;6671147;87;20263;-82
2022/03/26 10:38:30;;;;;;;35.70;16.58;;;21.40;72.50;;;;;;6664732;88;20484;-80
2022/03/26 10:48:33;;;;;;;34.13;17.58;;;22.00;70.70;;;;;;6661018;89;20224;-79
2022/03/26 10:58:34;;;;;;;33.10;17.23;;;22.20;69.00;;;;;;6663530;89;20201;-81
2022/03/26 11:08:36;;;;;;;30.80;16.83;;;22.70;66.70;;;;;;6671675;89;20200;-80
2022/03/26 11:18:56;;;;;;;29.00;16.05;;;22.70;64.10;;;;;;6772870;88;20214;-79
2022/03/26 11:29:06;;;;;;;30.65;15.95;;;23.00;63.30;;;;;;6760401;88;20279;-79
2022/03/26 11:39:14;;;;;;;34.15;16.00;;;22.90;64.10;;;;;;6755468;88;20217;-79
2022/03/26 11:59:41;;;;;;;27.25;14.10;;;23.30;64.80;;;;;;6772520;88;20274;-80
2022/03/26 12:09:42;;;;;;;35.13;15.77;;;25.20;61.00;;;;;;6767416;88;20180;-81
2022/03/26 12:19:45;;;;;;;28.12;15.95;;;25.30;60.00;;;;;;6757390;88;20211;-81
2022/03/26 12:29:46;;;;;;;33.42;15.18;;;24.80;60.40;;;;;;6751020;88;20204;-82
2022/03/26 12:39:47;;;;;;;29.73;15.68;;;23.90;60.80;;;;;;6751630;87;20225;-80
2022/03/26 12:49:48;;;;;;;26.80;14.60;;;24.20;60.80;;;;;;6752055;88;20565;-82
2022/03/26 12:59:56;;;;;;;22.62;14.15;;;23.30;62.20;;;;;;6753054;88;20250;-80
2022/03/26 13:09:57;;;;;;;32.40;15.25;;;23.80;61.90;;;;;;6754707;88;20228;-81
2022/03/26 13:19:58;;;;;;;28.10;15.02;;;24.40;60.30;;;;;;6776213;87;20302;-81
2022/03/26 13:30:09;;;;;;;25.70;14.85;;;24.90;58.80;;;;;;6756895;88;20528;-81
2022/03/26 13:40:10;;;;;;;28.20;15.57;;;25.20;59.00;;;;;;6654468;88;20215;-81
2022/03/26 13:50:13;;;;;;;28.30;15.80;;;25.00;58.10;;;;;;6650913;89;20199;-80
2022/03/26 14:00:15;;;;;;;30.55;15.77;;;25.10;57.90;;;;;;6754561;88;20470;-80
2022/03/26 14:10:15;;;;;;;25.48;14.07;;;24.40;58.80;;;;;;6771307;87;20211;-80
2022/03/26 14:20:16;;;;;;;22.98;13.77;;;25.20;57.40;;;;;;6780591;87;20194;-80
2022/03/26 14:30:16;;;;;;;27.75;14.63;;;25.30;56.30;;;;;;6782503;87;20259;-80
2022/03/26 14:40:17;;;;;;;24.58;12.52;;;25.10;56.50;;;;;;6780742;88;20202;-81
2022/03/26 14:50:19;;;;;;;22.33;11.05;;;25.10;55.00;;;;;;6781475;88;20286;-82
2022/03/26 15:00:20;;;;;;;16.85;7.05;;;23.90;56.90;;;;;;6762410;87;20961;-84
2022/03/26 15:10:22;;;;;;;11.35;4.97;;;24.30;57.10;;;;;;6762400;87;20434;-82
2022/03/26 15:20:22;;;;;;;9.35;3.92;;;24.00;57.10;;;;;;6746209;88;20186;-82
2022/03/26 15:30:23;;;;;;;6.95;3.20;;;23.90;56.90;;;;;;6739001;88;20705;-83
2022/03/26 15:40:23;;;;;;;5.25;2.78;;;23.80;56.70;;;;;;6745856;88;20185;-83
2022/03/26 15:50:24;;;;;;;7.63;2.80;;;23.30;57.40;;;;;;6720087;87;20278;-81
2022/03/26 16:00:24;;;;;;;12.82;2.78;;;23.10;57.90;;;;;;6673149;89;20190;-79
2022/03/26 16:10:25;;;;;;;5.90;2.53;;;22.80;59.40;;;;;;6675940;89;20316;-79
2022/03/26 16:20:26;;;;;;;4.27;2.27;;;22.30;59.90;;;;;;6676791;88;20317;-79
2022/03/26 16:30:27;;;;;;;5.93;2.50;;;21.90;60.50;;;;;;6673270;88;20531;-79
2022/03/26 16:40:28;;;;;;;7.18;1.98;;;21.40;60.80;;;;;;6681133;88;20191;-79
2022/03/26 16:50:32;;;;;;;5.95;2.47;;;21.10;60.20;;;;;;6673827;88;20605;-79
2022/03/26 17:00:33;;;;;;;8.50;3.30;;;20.60;62.10;;;;;;6660536;88;20217;-80
2022/03/26 17:10:34;;;;;;;10.05;5.30;;;20.20;63.60;;;;;;6669674;89;20217;-79
2022/03/26 17:20:34;;;;;;;9.45;5.65;;;19.30;65.50;;;;;;6676792;87;20171;-83
2022/03/26 17:30:35;;;;;;;13.70;7.18;;;18.90;67.10;;;;;;6695261;87;20164;-80
2022/03/26 17:40:35;;;;;;;11.17;6.67;;;18.50;68.10;;;;;;6701635;87;20201;-81
2022/03/26 17:50:36;;;;;;;14.55;7.28;;;18.20;69.00;;;;;;6666732;88;20545;-84
2022/03/26 18:00:37;;;;;;;11.68;7.10;;;17.80;70.30;;;;;;6754485;88;20209;-82
2022/03/26 18:10:37;;;;;;;12.47;7.40;;;17.50;71.90;;;;;;6759065;87;20677;-82
2022/03/26 18:20:38;;;;;;;14.32;7.90;;;17.30;71.80;;;;;;6758688;88;20237;-82
2022/03/26 18:30:39;;;;;;;14.60;7.55;;;16.90;72.80;;;;;;6759360;88;20267;-83
2022/03/26 18:40:44;;;;;;;13.80;7.43;;;16.60;73.40;;;;;;6762618;87;20153;-81
2022/03/26 18:50:44;;;;;;;13.77;7.33;;;16.30;73.90;;;;;;6736071;88;20789;-82
2022/03/26 19:00:45;;;;;;;14.10;7.85;;;15.80;75.70;;;;;;6771449;88;20180;-81
2022/03/26 19:10:51;;;;;;;14.93;8.65;;;15.40;76.70;;;;;;6757762;88;20192;-81
2022/03/26 19:20:51;;;;;;;15.13;8.43;;;15.10;77.40;;;;;;6754512;88;20251;-82
2022/03/26 19:30:52;;;;;;;15.90;9.10;;;14.90;78.00;;;;;;6750699;88;20196;-81
2022/03/26 19:40:53;;;;;;;16.83;9.23;;;14.70;78.60;;;;;;6750820;88;20624;-82
2022/03/26 19:50:53;;;;;;;16.92;9.68;;;14.60;79.20;;;;;;6756316;88;20222;-81
2022/03/26 20:00:54;;;;;;;18.33;10.50;;;14.40;79.90;;;;;;6757033;88;20218;-81
2022/03/26 20:10:55;;;;;;;16.50;9.25;;;14.20;80.80;;;;;;6755016;88;20635;-81
2022/03/26 20:20:56;;;;;;;17.40;9.43;;;14.00;81.10;;;;;;6759724;88;20289;-82
2022/03/26 20:30:57;;;;;;;18.12;8.98;;;13.90;82.60;;;;;;6761015;88;20205;-82
2022/03/26 20:40:57;;;;;;;20.10;10.38;;;13.60;82.90;;;;;;6759829;88;20227;-81
2022/03/26 20:50:58;;;;;;;20.08;11.25;;;13.50;84.10;;;;;;6759761;88;20233;-81
2022/03/26 21:00:58;;;;;;;24.63;11.95;;;13.40;85.40;;;;;;6760844;88;20212;-82
2022/03/26 21:10:59;;;;;;;20.98;11.43;;;13.10;86.80;;;;;;6764232;87;20172;-83
2022/03/26 21:20:59;;;;;;;22.25;11.70;;;12.90;88.50;;;;;;6764825;88;20239;-83
2022/03/26 21:31:00;;;;;;;23.67;11.68;;;12.80;90.20;;;;;;6764975;87;20173;-83
2022/03/26 21:41:01;;;;;;;21.15;10.90;;;12.70;90.90;;;;;;6728669;88;20185;-83
2022/03/26 21:51:02;;;;;;;19.85;10.98;;;12.50;91.80;;;;;;6725096;88;20207;-81
2022/03/26 22:01:03;;;;;;;20.12;11.45;;;12.40;92.80;;;;;;6726873;88;20197;-80
2022/03/26 22:11:03;;;;;;;23.48;11.10;;;12.10;93.50;;;;;;6755999;87;20195;-80
2022/03/26 22:21:04;;;;;;;19.10;10.60;;;12.00;94.70;;;;;;6764193;87;20189;-80
2022/03/26 22:31:07;;;;;;;22.35;11.02;;;12.00;94.70;;;;;;6727737;88;20223;-81
2022/03/26 22:41:08;;;;;;;22.70;11.50;;;11.90;95.40;;;;;;6729395;88;20198;-79
2022/03/26 22:51:08;;;;;;;23.50;11.65;;;11.80;96.40;;;;;;6729828;88;20193;-80
2022/03/26 23:01:16;;;;;;;21.75;11.70;;;11.50;97.90;;;;;;6760544;87;20251;-80
2022/03/26 23:11:17;;;;;;;21.92;11.90;;;11.40;99.30;;;;;;6749485;88;20254;-80
2022/03/26 23:21:17;;;;;;;24.52;12.45;;;11.20;99.90;;;;;;6732033;88;20252;-80
2022/03/26 23:31:18;;;;;;;22.83;12.55;;;11.00;99.90;;;;;;6731875;88;20365;-80
2022/03/26 23:41:19;;;;;;;21.70;12.00;;;11.00;99.90;;;;;;6731955;88;20253;-80
2022/03/26 23:51:22;;;;;;;20.15;10.57;;;10.90;99.90;;;;;;6748711;87;20865;-80
